Time;durP1;ratioP1;P1;durP2;ratioP2;P2;SDS_P1;SDS_P2;PMS_P1;PMS_P2;Temp;Humidity;BMP_temperature;BMP_pressure;BME280_temperature;BME280_humidity;BME280_pressure;Samples;Min_cycle;Max_cycle;Signal;HPM_P1;HPM_P2
2021/03/04 00:00:22;;;;;;;15.23;9.58;;;;;;;-1.21;84.40;99933.80;1686978;85;21303;-64
2021/03/04 00:02:49;;;;;;;16.95;10.32;;;;;;;-1.15;84.50;99924.19;1726118;81;21169;-65
2021/03/04 00:05:17;;;;;;;20.27;12.78;;;;;;;-1.21;84.81;99920.95;1723814;81;21153;-64
2021/03/04 00:07:45;;;;;;;23.83;13.65;;;;;;;-1.23;84.76;99914.95;1725009;81;21202;-65
2021/03/04 00:10:15;;;;;;;21.60;11.85;;;;;;;-1.17;84.82;99912.88;1724976;81;21118;-65
2021/03/04 00:12:43;;;;;;;22.22;13.48;;;;;;;-1.15;84.77;99915.67;1724681;81;21298;-64
2021/03/04 00:15:12;;;;;;;20.65;12.00;;;;;;;-1.20;85.09;99906.55;1720368;81;21609;-65
2021/03/04 00:17:42;;;;;;;32.42;15.65;;;;;;;-1.11;85.08;99904.92;1723468;81;21213;-64
2021/03/04 00:20:14;;;;;;;23.65;13.78;;;;;;;-1.12;85.05;99889.90;1752141;80;21153;-65
2021/03/04 00:22:41;;;;;;;22.75;13.38;;;;;;;-1.15;85.31;99875.59;1747146;80;21206;-64
2021/03/04 00:25:09;;;;;;;16.52;10.15;;;;;;;-1.08;85.20;99871.13;1741558;80;21126;-64
2021/03/04 00:27:37;;;;;;;23.52;13.85;;;;;;;-1.06;85.13;99870.41;1740244;80;21131;-64
2021/03/04 00:30:06;;;;;;;24.63;13.58;;;;;;;-1.11;85.39;99872.03;1740350;80;21183;-64
2021/03/04 00:32:35;;;;;;;19.17;11.40;;;;;;;-0.98;85.20;99860.61;1749929;81;21141;-64
2021/03/04 00:35:06;;;;;;;23.00;13.75;;;;;;;-0.96;85.21;99859.41;1742885;80;21578;-64
2021/03/04 00:37:33;;;;;;;19.32;10.53;;;;;;;-1.01;85.35;99860.49;1746331;80;21474;-64
2021/03/04 00:40:00;;;;;;;24.92;14.60;;;;;;;-0.88;85.09;99843.71;1741524;80;21157;-64
2021/03/04 00:42:28;;;;;;;27.00;15.10;;;;;;;-0.87;85.09;99849.37;1739940;80;21167;-64
2021/03/04 00:44:56;;;;;;;26.23;14.38;;;;;;;-0.95;85.54;99849.02;1741601;80;21152;-64
2021/03/04 00:47:24;;;;;;;27.10;17.00;;;;;;;-0.90;85.51;99844.43;1749849;80;21181;-64
2021/03/04 00:49:52;;;;;;;26.52;14.25;;;;;;;-0.81;85.20;99834.72;1718862;83;21197;-64
2021/03/04 00:52:19;;;;;;;31.23;18.48;;;;;;;-0.85;85.65;99833.45;1746841;80;21172;-64
2021/03/04 00:54:47;;;;;;;23.57;13.70;;;;;;;-0.82;85.55;99827.74;1737478;82;21174;-64
2021/03/04 00:57:14;;;;;;;25.37;14.35;;;;;;;-0.71;85.28;99828.50;1743899;80;21193;-64
2021/03/04 00:59:43;;;;;;;32.08;17.75;;;;;;;-0.74;85.46;99820.05;1741801;80;21613;-64
2021/03/04 01:02:10;;;;;;;26.02;14.23;;;;;;;-0.78;85.59;99818.28;1744632;80;21488;-63
2021/03/04 01:04:38;;;;;;;27.45;14.75;;;;;;;-0.72;85.38;99812.17;1753576;81;21163;-64
2021/03/04 01:07:06;;;;;;;29.95;16.40;;;;;;;-0.74;85.47;99812.86;1754979;80;21307;-64
2021/03/04 01:09:33;;;;;;;33.83;19.10;;;;;;;-0.79;85.70;99807.30;1750949;80;21169;-64
2021/03/04 01:12:01;;;;;;;24.43;13.60;;;;;;;-0.70;85.40;99791.91;1751827;82;21161;-65
2021/03/04 01:14:29;;;;;;;29.92;16.25;;;;;;;-0.68;85.45;99786.70;1755346;80;21204;-65
2021/03/04 01:16:58;;;;;;;29.75;16.42;;;;;;;-0.71;85.60;99777.71;1742338;79;21178;-64
2021/03/04 01:19:26;;;;;;;34.58;18.37;;;;;;;-0.71;85.72;99772.37;1742973;80;21237;-64
2021/03/04 01:21:54;;;;;;;34.25;18.10;;;;;;;-0.57;85.33;99771.41;1737546;80;21741;-65
2021/03/04 01:24:21;;;;;;;34.33;20.02;;;;;;;-0.58;85.37;99764.94;1713437;80;21654;-65
2021/03/04 01:26:49;;;;;;;31.30;17.62;;;;;;;-0.62;85.67;99763.17;1744070;81;21710;-64
2021/03/04 01:29:16;;;;;;;38.63;20.62;;;;;;;-0.56;85.64;99761.53;1740996;82;21201;-65
2021/03/04 01:31:43;;;;;;;34.40;17.87;;;;;;;-0.47;85.28;99758.19;1739281;80;21167;-64
2021/03/04 01:34:11;;;;;;;36.65;18.95;;;;;;;-0.51;85.47;99747.90;1728619;80;21147;-65
2021/03/04 01:36:39;;;;;;;42.38;21.42;;;;;;;-0.59;85.80;99748.57;1737279;81;21180;-65
2021/03/04 01:39:07;;;;;;;33.70;17.23;;;;;;;-0.53;85.63;99744.58;1739987;82;21716;-65
2021/03/04 01:41:34;;;;;;;44.42;23.35;;;;;;;-0.47;85.55;99747.49;1715740;80;21182;-64
2021/03/04 01:44:03;;;;;;;38.28;19.95;;;;;;;-0.54;85.76;99744.29;1747685;80;21191;-64
2021/03/04 01:46:30;;;;;;;36.08;19.85;;;;;;;-0.53;86.08;99737.06;1737432;80;21304;-64
2021/03/04 01:48:59;;;;;;;33.65;17.40;;;;;;;-0.40;85.74;99729.11;1717499;82;21651;-64
2021/03/04 01:51:26;;;;;;;45.58;23.77;;;;;;;-0.37;85.68;99726.53;1727809;80;21169;-65
2021/03/04 01:53:54;;;;;;;42.88;21.05;;;;;;;-0.43;85.93;99720.66;1739304;80;22237;-64
2021/03/04 01:56:21;;;;;;;37.95;20.85;;;;;;;-0.43;86.08;99713.47;1744439;81;21638;-64
2021/03/04 01:58:49;;;;;;;44.60;24.32;;;;;;;-0.26;85.78;99713.41;1734752;80;21300;-64
2021/03/04 02:01:17;;;;;;;38.15;18.95;;;;;;;-0.22;85.67;99703.95;1745232;80;21192;-65
2021/03/04 02:03:44;;;;;;;51.25;25.50;;;;;;;-0.27;85.95;99697.03;1742108;80;21189;-65
2021/03/04 02:06:12;;;;;;;42.38;23.83;;;;;;;-0.23;85.86;99698.28;1735788;82;21225;-66
2021/03/04 02:08:45;;;;;;;41.02;20.70;;;;;;;-0.12;85.71;99688.83;1741116;82;21269;-65
2021/03/04 02:11:19;;;;;;;50.52;24.02;;;;;;;-0.17;85.98;99683.25;1737455;82;21326;-65
2021/03/04 02:13:51;;;;;;;52.35;26.37;;;;;;;-0.21;86.11;99680.16;1732188;80;21536;-64
2021/03/04 02:16:21;;;;;;;37.78;20.10;;;;;;;-0.11;85.94;99677.11;1743763;81;21483;-65
2021/03/04 02:18:55;;;;;;;37.45;20.05;;;;;;;-0.08;85.82;99679.38;1737506;80;21217;-65
2021/03/04 02:21:52;;;;;;;49.18;25.45;;;;;;;-0.14;86.05;99675.64;1752080;80;21218;-64
2021/03/04 02:24:49;;;;;;;45.05;25.15;;;;;;;-0.08;86.00;99671.34;1734471;80;21323;-64
2021/03/04 02:27:17;;;;;;;48.30;26.23;;;;;;;0.01;85.71;99664.75;1738366;80;21328;-64
2021/03/04 02:30:00;;;;;;;46.35;23.90;;;;;;;-0.04;86.08;99653.86;1752233;82;21308;-65
2021/03/04 02:32:27;;;;;;;43.40;23.35;;;;;;;-0.04;86.25;99658.66;1748947;80;21161;-64
2021/03/04 02:35:21;;;;;;;54.00;29.02;;;;;;;0.08;85.99;99660.22;1738973;80;21338;-65
2021/03/04 02:37:53;;;;;;;41.63;21.60;;;;;;;0.15;85.71;99649.00;1770954;80;21128;-63
2021/03/04 02:40:22;;;;;;;45.33;24.07;;;;;;;0.07;85.99;99652.41;1757369;80;21197;-63
2021/03/04 02:42:50;;;;;;;47.55;26.87;;;;;;;0.06;86.01;99644.89;1745495;81;21210;-64
2021/03/04 02:45:22;;;;;;;43.28;23.07;;;;;;;0.16;85.76;99631.91;1720196;80;21175;-64
2021/03/04 02:47:50;;;;;;;55.50;27.90;;;;;;;0.12;86.01;99626.66;1749609;80;21136;-64
2021/03/04 02:50:21;;;;;;;53.13;28.47;;;;;;;0.05;86.24;99621.00;1752098;80;21189;-64
2021/03/04 02:52:48;;;;;;;48.23;25.52;;;;;;;0.12;86.19;99615.13;1746675;80;21206;-64
2021/03/04 02:55:15;;;;;;;45.45;24.82;;;;;;;0.18;86.00;99612.98;1750378;80;21165;-63
2021/03/04 02:57:45;;;;;;;48.13;26.12;;;;;;;0.11;86.15;99607.61;1754491;82;21587;-64
2021/03/04 03:00:21;;;;;;;41.42;21.35;;;;;;;0.13;86.15;99604.73;1750680;82;21485;-65
2021/03/04 03:02:50;;;;;;;42.48;23.10;;;;;;;0.18;85.91;99600.39;1734719;80;21201;-64
2021/03/04 03:05:19;;;;;;;48.90;27.00;;;;;;;0.09;86.11;99596.30;1733892;82;21185;-63
2021/03/04 03:07:49;;;;;;;44.10;24.47;;;;;;;0.13;86.12;99594.03;1739769;82;21137;-64
2021/03/04 03:10:17;;;;;;;49.27;24.82;;;;;;;0.16;85.95;99589.08;1730534;80;21625;-64
2021/03/04 03:12:47;;;;;;;45.35;24.70;;;;;;;0.10;86.20;99594.45;1724949;81;21664;-64
2021/03/04 03:15:19;;;;;;;46.75;23.42;;;;;;;0.15;86.10;99587.94;1717198;83;21171;-63
2021/03/04 03:17:47;;;;;;;50.80;25.35;;;;;;;0.19;85.95;99581.14;1742640;80;21344;-64
2021/03/04 03:20:19;;;;;;;49.40;25.55;;;;;;;0.12;86.23;99583.01;1742557;82;21647;-64
2021/03/04 03:22:48;;;;;;;47.38;24.25;;;;;;;0.14;86.17;99575.61;1743472;81;21165;-63
2021/03/04 03:25:15;;;;;;;47.05;24.82;;;;;;;0.21;85.82;99572.41;1743521;80;21193;-63
2021/03/04 03:27:44;;;;;;;53.42;26.93;;;;;;;0.16;85.94;99558.81;1741395;82;21297;-64
2021/03/04 03:30:20;;;;;;;43.00;24.63;;;;;;;0.13;85.96;99547.19;1740887;82;21314;-63
2021/03/04 03:33:06;;;;;;;52.17;28.73;;;;;;;0.25;85.61;99539.62;1737919;79;22753;-64
2021/03/04 03:35:34;;;;;;;50.15;27.07;;;;;;;0.21;85.61;99537.09;1716337;82;21274;-63
2021/03/04 03:38:03;;;;;;;51.45;26.50;;;;;;;0.15;85.87;99545.94;1725484;80;21295;-64
2021/03/04 03:40:33;;;;;;;52.83;29.45;;;;;;;0.12;85.88;99542.34;1739319;82;21315;-64
2021/03/04 03:43:03;;;;;;;55.33;29.15;;;;;;;0.21;85.46;99529.58;1704626;84;21160;-66
2021/03/04 03:45:33;;;;;;;50.33;29.07;;;;;;;0.23;85.28;99528.32;1678062;84;21121;-63
2021/03/04 03:48:02;;;;;;;49.65;26.57;;;;;;;0.19;85.48;99522.25;1685263;84;21169;-64
2021/03/04 03:50:31;;;;;;;46.23;25.88;;;;;;;0.13;85.55;99521.25;1681530;84;21181;-64
2021/03/04 03:52:58;;;;;;;46.10;26.97;;;;;;;0.16;85.23;99518.15;1704724;84;21185;-64
2021/03/04 03:55:26;;;;;;;41.60;22.65;;;;;;;0.23;84.75;99508.24;1707061;84;21137;-64
2021/03/04 03:57:53;;;;;;;49.73;26.85;;;;;;;0.21;84.70;99501.47;1704063;84;21586;-64
2021/03/04 04:00:25;;;;;;;49.25;27.17;;;;;;;0.11;84.82;99498.41;1668003;84;21715;-64
2021/03/04 04:03:00;;;;;;;50.70;26.95;;;;;;;0.03;84.86;99493.27;1691555;84;21173;-63
2021/03/04 04:05:28;;;;;;;46.53;26.17;;;;;;;-0.10;84.48;99462.00;1705260;84;21177;-64
2021/03/04 04:07:58;;;;;;;48.90;26.77;;;;;;;0.08;84.17;99477.39;1706117;84;21195;-64
2021/03/04 04:10:27;;;;;;;48.90;27.52;;;;;;;-0.05;84.12;99466.22;1706825;84;21216;-64
2021/03/04 04:12:55;;;;;;;47.23;25.65;;;;;;;-0.16;84.34;99465.52;1701809;83;21210;-64
2021/03/04 04:15:24;;;;;;;44.70;25.92;;;;;;;-0.13;83.97;99460.57;1679018;84;21200;-64
2021/03/04 04:17:51;;;;;;;51.00;26.95;;;;;;;-0.14;83.66;99452.23;1679545;84;21153;-64
2021/03/04 04:20:20;;;;;;;48.85;26.27;;;;;;;-0.27;83.92;99448.25;1679764;84;21228;-64
2021/03/04 04:22:48;;;;;;;45.85;25.97;;;;;;;-0.36;84.07;99446.02;1648300;84;21199;-66
2021/03/04 04:25:17;;;;;;;44.90;25.72;;;;;;;-0.31;83.74;99449.70;1705544;84;21161;-64
2021/03/04 04:27:45;;;;;;;42.30;26.27;;;;;;;-0.32;83.61;99440.56;1714699;83;21169;-62
2021/03/04 04:30:14;;;;;;;42.98;24.18;;;;;;;-0.43;83.81;99428.66;1709180;83;21165;-64
2021/03/04 04:32:41;;;;;;;39.20;22.50;;;;;;;-0.45;83.83;99433.38;1707938;83;21187;-62
2021/03/04 04:35:11;;;;;;;45.63;26.42;;;;;;;-0.38;83.46;99425.33;1693717;84;21713;-62
2021/03/04 04:37:38;;;;;;;43.95;25.55;;;;;;;-0.44;83.54;99414.97;1673877;84;21308;-64
2021/03/04 04:40:07;;;;;;;44.05;24.37;;;;;;;-0.53;83.80;99421.03;1703462;84;21351;-63
2021/03/04 04:42:35;;;;;;;45.83;25.97;;;;;;;-0.54;83.87;99427.44;1693314;84;21252;-62
2021/03/04 04:45:04;;;;;;;44.95;26.17;;;;;;;-0.45;83.54;99409.81;1692273;84;21138;-63
2021/03/04 04:47:32;;;;;;;44.58;24.25;;;;;;;-0.52;83.64;99408.49;1691685;84;21199;-63
2021/03/04 04:50:00;;;;;;;50.88;26.12;;;;;;;-0.61;83.90;99411.91;1663029;86;21344;-63
2021/03/04 04:52:27;;;;;;;45.33;24.65;;;;;;;-0.59;84.00;99409.84;1695806;82;21303;-64
2021/03/04 04:54:54;;;;;;;50.52;27.82;;;;;;;-0.51;83.83;99404.80;1710253;82;21166;-63
2021/03/04 04:57:22;;;;;;;46.00;25.55;;;;;;;-0.60;84.14;99401.50;1736046;82;21296;-64
2021/03/04 04:59:50;;;;;;;44.73;25.37;;;;;;;-0.62;84.38;99398.23;1736405;81;21222;-63
2021/03/04 05:02:18;;;;;;;41.65;22.67;;;;;;;-0.50;84.19;99394.42;1700239;82;21588;-64
2021/03/04 05:04:45;;;;;;;45.52;25.10;;;;;;;-0.43;84.17;99392.55;1695847;82;21651;-64
2021/03/04 05:07:13;;;;;;;46.80;25.50;;;;;;;-0.44;84.36;99386.06;1701664;82;21568;-64
2021/03/04 05:09:40;;;;;;;48.23;27.05;;;;;;;-0.41;84.41;99385.13;1699085;82;21154;-64
2021/03/04 05:12:10;;;;;;;46.08;24.77;;;;;;;-0.27;83.92;99373.36;1672167;85;21316;-63
2021/03/04 05:14:39;;;;;;;46.08;24.50;;;;;;;-0.25;83.91;99380.64;1694854;83;21185;-64
2021/03/04 05:17:06;;;;;;;41.20;22.22;;;;;;;-0.29;83.96;99377.28;1721209;82;21196;-64
2021/03/04 05:19:35;;;;;;;44.80;25.70;;;;;;;-0.22;83.81;99370.89;1734985;82;21668;-64
2021/03/04 05:22:03;;;;;;;47.50;27.55;;;;;;;-0.11;83.56;99363.52;1736318;82;21159;-64
2021/03/04 05:24:31;;;;;;;46.08;25.85;;;;;;;-0.09;83.68;99359.30;1734054;82;21963;-64
2021/03/04 05:26:58;;;;;;;50.88;26.80;;;;;;;-0.10;83.82;99350.95;1736053;82;21142;-64
2021/03/04 05:29:26;;;;;;;43.28;25.72;;;;;;;0.02;83.64;99353.80;1736483;82;21198;-64
2021/03/04 05:31:53;;;;;;;51.55;27.98;;;;;;;0.16;83.25;99346.01;1730518;82;21613;-64
2021/03/04 05:34:21;;;;;;;50.03;27.27;;;;;;;0.14;83.29;99342.73;1733243;82;21126;-64
2021/03/04 05:36:49;;;;;;;46.40;25.35;;;;;;;0.11;83.41;99337.27;1721131;82;21145;-64
2021/03/04 05:39:17;;;;;;;47.40;26.17;;;;;;;0.23;83.22;99334.23;1724539;82;21589;-64
2021/03/04 05:41:44;;;;;;;37.48;22.48;;;;;;;0.37;82.79;99331.78;1736402;82;21362;-63
2021/03/04 05:44:12;;;;;;;48.95;27.67;;;;;;;0.39;82.83;99332.91;1733579;82;21299;-63
2021/03/04 05:46:39;;;;;;;42.62;24.77;;;;;;;0.36;82.93;99331.47;1713069;82;21305;-63
2021/03/04 05:49:06;;;;;;;48.95;26.80;;;;;;;0.50;82.71;99330.85;1731884;82;21121;-64
2021/03/04 05:51:37;;;;;;;48.05;25.82;;;;;;;0.68;82.28;99326.09;1728904;83;21211;-63
2021/03/04 05:54:06;;;;;;;45.63;24.47;;;;;;;0.73;82.37;99331.11;1731686;83;21671;-63
2021/03/04 05:56:36;;;;;;;49.85;28.60;;;;;;;0.78;82.49;99329.92;1732094;82;21173;-63
2021/03/04 05:59:04;;;;;;;46.40;26.97;;;;;;;0.98;82.37;99323.07;1669675;85;21208;-63
2021/03/04 06:01:33;;;;;;;47.98;25.85;;;;;;;1.24;81.39;99330.05;1634600;85;21655;-60
2021/03/04 06:04:00;;;;;;;51.15;27.17;;;;;;;1.39;81.24;99311.72;1736274;82;21648;-59
2021/03/04 06:06:27;;;;;;;48.90;26.37;;;;;;;1.54;80.70;99318.89;1736377;82;21214;-59
2021/03/04 06:08:55;;;;;;;44.88;24.92;;;;;;;1.72;80.09;99314.03;1712425;82;21171;-61
2021/03/04 06:11:23;;;;;;;48.10;27.00;;;;;;;1.94;78.72;99307.16;1706955;84;21211;-64
2021/03/04 06:13:50;;;;;;;46.33;28.15;;;;;;;2.20;78.37;99307.30;1720772;82;21144;-64
2021/03/04 06:16:18;;;;;;;44.50;25.55;;;;;;;2.34;77.80;99308.23;1721291;82;21189;-64
2021/03/04 06:18:45;;;;;;;47.08;28.10;;;;;;;2.51;77.38;99305.73;1723754;82;21095;-64
2021/03/04 06:21:22;;;;;;;47.20;25.92;;;;;;;2.64;76.69;99296.12;1732815;82;21226;-64
2021/03/04 06:23:53;;;;;;;46.23;26.10;;;;;;;2.93;75.87;99291.19;1731421;83;21125;-64
2021/03/04 06:26:36;;;;;;;44.10;25.08;;;;;;;3.20;74.82;99288.02;1731392;83;21149;-64
2021/03/04 06:29:18;;;;;;;47.83;26.97;;;;;;;3.34;74.21;99280.81;1722256;83;21200;-65
2021/03/04 06:31:59;;;;;;;46.08;26.45;;;;;;;3.49;73.32;99275.77;1734624;82;21195;-65
2021/03/04 06:34:27;;;;;;;46.60;26.20;;;;;;;3.64;73.00;99270.41;1752022;82;21129;-64
2021/03/04 06:37:00;;;;;;;45.85;26.82;;;;;;;3.94;72.16;99266.97;1753390;82;21611;-65
2021/03/04 06:39:43;;;;;;;48.50;28.73;;;;;;;4.19;70.98;99255.84;1753577;82;21529;-65
2021/03/04 06:42:11;;;;;;;43.17;26.70;;;;;;;4.33;69.89;99248.56;1753230;82;21173;-64
2021/03/04 06:44:54;;;;;;;45.40;26.60;;;;;;;4.39;69.15;99243.55;1753297;82;21169;-64
2021/03/04 06:47:27;;;;;;;49.58;28.12;;;;;;;4.42;69.15;99251.17;1753325;82;21690;-65
2021/03/04 06:49:55;;;;;;;44.85;26.57;;;;;;;4.57;69.21;99249.23;1753270;82;21166;-65
2021/03/04 06:52:32;;;;;;;43.87;26.57;;;;;;;4.76;68.04;99235.81;1749741;82;21173;-64
2021/03/04 06:55:13;;;;;;;39.40;25.65;;;;;;;4.96;67.67;99237.98;1753378;81;21280;-64
2021/03/04 06:57:41;;;;;;;42.03;25.90;;;;;;;4.92;67.51;99232.83;1728089;82;21138;-64
2021/03/04 07:00:19;;;;;;;48.20;26.90;;;;;;;4.93;67.59;99221.77;1743716;82;21173;-64
2021/03/04 07:02:54;;;;;;;43.90;25.75;;;;;;;5.10;67.31;99215.55;1742623;82;21191;-64
2021/03/04 07:05:23;;;;;;;41.45;26.23;;;;;;;5.21;66.49;99218.11;1735006;82;21129;-62
2021/03/04 07:07:55;;;;;;;48.92;27.20;;;;;;;5.30;66.67;99222.03;1749352;82;21089;-60
2021/03/04 07:10:26;;;;;;;45.23;25.72;;;;;;;5.29;65.85;99218.22;1752593;82;21276;-60
2021/03/04 07:12:55;;;;;;;39.85;24.15;;;;;;;5.27;66.13;99212.27;1735899;82;21182;-61
2021/03/04 07:15:22;;;;;;;42.00;24.20;;;;;;;5.43;65.30;99211.38;1735487;82;21573;-62
2021/03/04 07:17:50;;;;;;;42.90;25.52;;;;;;;5.50;65.73;99209.31;1738754;82;21360;-61
2021/03/04 07:20:20;;;;;;;43.08;25.50;;;;;;;5.56;65.56;99206.97;1752852;82;21181;-60
2021/03/04 07:22:49;;;;;;;41.73;25.27;;;;;;;5.81;65.35;99199.70;1721286;83;21948;-60
2021/03/04 07:25:17;;;;;;;42.08;26.33;;;;;;;6.15;64.50;99200.33;1723034;83;21305;-61
2021/03/04 07:27:45;;;;;;;39.45;24.40;;;;;;;6.35;63.40;99191.05;1747129;82;21157;-61
2021/03/04 07:30:15;;;;;;;37.80;23.38;;;;;;;6.47;62.13;99176.83;1752705;82;21189;-60
2021/03/04 07:35:39;;;;;;;41.15;24.37;;;;;;;6.75;61.66;99165.68;1778334;79;22915;-61
2021/03/04 07:38:07;;;;;;;41.60;25.43;;;;;;;6.79;61.39;99171.38;1722728;83;21142;-62
2021/03/04 07:40:34;;;;;;;41.77;25.05;;;;;;;6.77;60.96;99161.34;1722676;82;21177;-61
2021/03/04 07:43:03;;;;;;;45.90;27.35;;;;;;;6.72;60.89;99155.38;1722404;83;21137;-61
2021/03/04 07:45:32;;;;;;;41.98;25.97;;;;;;;6.72;60.99;99158.09;1722759;83;21335;-61
2021/03/04 07:48:09;;;;;;;40.88;24.10;;;;;;;6.76;61.09;99150.27;1680335;84;21823;-62
2021/03/04 07:50:37;;;;;;;37.85;24.07;;;;;;;6.80;61.08;99147.32;1678854;85;21349;-62
2021/03/04 07:53:06;;;;;;;40.12;25.97;;;;;;;6.83;60.85;99144.91;1675775;85;21158;-61
2021/03/04 07:55:38;;;;;;;41.88;24.87;;;;;;;6.88;61.03;99144.92;1690579;82;21129;-61
2021/03/04 07:58:15;;;;;;;36.80;23.65;;;;;;;7.04;60.26;99135.00;1675355;83;21291;-61
2021/03/04 08:00:42;;;;;;;42.10;25.68;;;;;;;7.07;60.18;99136.36;1708308;83;21149;-61
2021/03/04 08:03:10;;;;;;;39.45;24.45;;;;;;;7.19;59.85;99137.77;1683223;82;21701;-61
2021/03/04 08:05:39;;;;;;;38.58;25.20;;;;;;;7.27;59.54;99125.08;1715523;82;21165;-62
2021/03/04 08:08:14;;;;;;;36.55;23.85;;;;;;;7.31;59.71;99126.18;1713873;82;21160;-62
2021/03/04 08:10:46;;;;;;;42.15;25.27;;;;;;;7.28;59.11;99101.53;1716502;83;21185;-61
2021/03/04 08:13:14;;;;;;;35.48;23.75;;;;;;;7.32;58.85;99116.98;1686824;83;21121;-61
2021/03/04 08:18:22;;;;;;;39.18;28.47;;;;;;;7.30;59.62;99108.30;1794230;79;28386;-60
2021/03/04 08:20:51;;;;;;;40.40;25.52;;;;;;;7.61;58.56;99097.57;1754713;80;21125;-61
2021/03/04 08:23:19;;;;;;;37.58;24.12;;;;;;;7.76;57.66;99105.73;1722214;82;21196;-61
2021/03/04 08:25:47;;;;;;;41.00;27.62;;;;;;;7.66;58.27;99107.05;1730607;81;21186;-61
2021/03/04 08:28:27;;;;;;;37.88;24.45;;;;;;;7.45;58.39;99100.23;1750535;81;21521;-61
2021/03/04 08:30:55;;;;;;;40.33;25.08;;;;;;;7.38;59.28;99097.50;1730612;83;21143;-62
2021/03/04 08:33:22;;;;;;;37.95;24.32;;;;;;;7.42;59.31;99089.94;1733706;80;21596;-62
2021/03/04 08:35:50;;;;;;;38.15;25.25;;;;;;;7.45;58.88;99083.98;1748536;80;21820;-61
2021/03/04 08:38:20;;;;;;;40.03;24.52;;;;;;;7.47;59.10;99088.58;1732150;82;21135;-61
2021/03/04 08:40:57;;;;;;;38.75;25.92;;;;;;;7.50;59.07;99081.30;1755952;81;21149;-62
2021/03/04 08:43:28;;;;;;;36.28;23.38;;;;;;;7.53;59.28;99086.72;1756066;82;21176;-62
2021/03/04 08:46:02;;;;;;;38.70;25.37;;;;;;;7.56;58.88;99074.52;1749901;81;21637;-62
2021/03/04 08:48:30;;;;;;;39.58;24.82;;;;;;;7.54;59.08;99065.33;1747058;81;21710;-61
2021/03/04 08:51:04;;;;;;;38.40;22.85;;;;;;;7.55;58.82;99066.12;1738004;82;21214;-61
2021/03/04 08:53:32;;;;;;;36.08;23.95;;;;;;;7.56;58.77;99062.34;1751575;82;21156;-62
2021/03/04 08:56:01;;;;;;;37.17;25.55;;;;;;;7.59;58.71;99057.20;1743813;82;21333;-62
2021/03/04 08:58:33;;;;;;;40.17;24.82;;;;;;;7.68;58.50;99039.34;1727374;82;21167;-62
2021/03/04 09:01:03;;;;;;;37.90;24.95;;;;;;;7.72;58.20;99032.84;1718333;82;21148;-62
2021/03/04 09:03:37;;;;;;;37.93;24.40;;;;;;;7.74;58.24;99030.12;1722135;81;21584;-62
2021/03/04 09:06:13;;;;;;;41.68;26.23;;;;;;;7.76;57.81;99015.76;1747448;82;21172;-62
2021/03/04 09:08:50;;;;;;;41.30;24.70;;;;;;;7.75;58.00;99018.75;1733983;82;21160;-62
2021/03/04 09:11:33;;;;;;;37.25;24.20;;;;;;;7.85;57.76;99006.56;1749142;82;21156;-62
2021/03/04 09:14:05;;;;;;;40.10;26.25;;;;;;;7.98;57.79;99011.42;1726561;82;21157;-62
2021/03/04 09:16:46;;;;;;;37.70;23.20;;;;;;;8.18;57.35;99003.28;1725129;83;21218;-62
2021/03/04 09:19:39;;;;;;;35.63;23.73;;;;;;;8.39;56.84;99004.91;1722502;82;21160;-62
2021/03/04 09:22:10;;;;;;;37.35;24.12;;;;;;;8.57;56.44;99002.67;1748859;81;21569;-61
2021/03/04 09:24:38;;;;;;;37.20;23.22;;;;;;;8.64;55.41;98996.41;1750872;82;21169;-60
2021/03/04 09:27:07;;;;;;;35.50;23.57;;;;;;;8.68;55.50;98990.70;1725116;82;21226;-61
2021/03/04 09:29:41;;;;;;;37.17;23.77;;;;;;;8.74;55.52;98991.77;1720378;83;21173;-60
2021/03/04 09:32:09;;;;;;;39.15;25.02;;;;;;;8.83;55.19;98982.48;1730991;82;21206;-62
2021/03/04 09:34:44;;;;;;;40.83;26.33;;;;;;;8.76;54.93;98982.78;1733666;80;21176;-61
2021/03/04 09:37:25;;;;;;;39.05;25.77;;;;;;;8.72;55.13;98985.78;1725988;81;21291;-61
2021/03/04 09:39:54;;;;;;;34.03;23.75;;;;;;;8.78;55.27;98970.31;1696839;84;21170;-62
2021/03/04 09:42:33;;;;;;;36.95;25.00;;;;;;;8.89;55.11;98967.81;1668186;85;21213;-61
2021/03/04 09:45:07;;;;;;;45.52;27.87;;;;;;;8.88;54.93;98958.86;1683501;85;21169;-61
2021/03/04 09:47:35;;;;;;;37.48;25.77;;;;;;;8.91;54.73;98958.30;1691544;85;21193;-61
2021/03/04 09:50:08;;;;;;;37.23;24.95;;;;;;;9.04;54.37;98958.21;1692016;85;21141;-61
2021/03/04 09:52:37;;;;;;;35.70;23.80;;;;;;;9.07;54.44;98958.22;1690134;85;21353;-61
2021/03/04 09:55:15;;;;;;;37.40;24.90;;;;;;;9.12;54.09;98950.84;1692253;85;21295;-62
2021/03/04 09:57:44;;;;;;;36.48;24.50;;;;;;;9.22;54.46;98941.27;1687124;85;21699;-62
2021/03/04 10:00:22;;;;;;;37.48;24.98;;;;;;;9.35;54.08;98941.98;1667831;83;21662;-61
2021/03/04 10:02:52;;;;;;;;;;;;;;;9.40;53.44;98937.88;1671859;83;21366;-63
2021/03/04 10:05:23;;;;;;;40.65;27.30;;;;;;;9.31;53.42;98931.98;1680128;83;20175;-60
2021/03/04 10:07:56;;;;;;;35.30;24.72;;;;;;;9.15;54.39;98930.45;1692181;85;21192;-62
2021/03/04 10:10:21;;;;;;;39.33;25.92;;;;;;;9.16;54.08;98931.54;1685388;85;21612;-62
2021/03/04 10:12:57;;;;;;;36.35;23.10;;;;;;;9.23;54.30;98926.61;1671395;81;69953;-72
2021/03/04 10:15:40;;;;;;;36.60;25.85;;;;;;;9.33;53.89;98923.81;1667879;84;21193;-74
2021/03/04 10:18:10;;;;;;;37.15;25.77;;;;;;;9.41;53.96;98920.50;1644015;85;21651;-75
2021/03/04 10:20:41;;;;;;;37.40;25.65;;;;;;;9.44;53.60;98913.13;1642719;86;21218;-75
2021/03/04 10:23:08;;;;;;;38.17;24.95;;;;;;;9.41;53.72;98919.69;1663136;85;21620;-74
2021/03/04 10:25:37;;;;;;;37.13;25.23;;;;;;;9.42;53.91;98909.09;1674494;85;21165;-74
2021/03/04 10:28:06;;;;;;;34.65;22.77;;;;;;;9.46;53.17;98906.86;1690045;84;21211;-74
2021/03/04 10:30:34;;;;;;;37.50;24.37;;;;;;;9.49;53.15;98895.98;1672953;84;21225;-73
2021/03/04 10:33:03;;;;;;;43.08;26.73;;;;;;;9.47;53.16;98889.47;1672775;85;21144;-74
2021/03/04 10:35:32;;;;;;;37.35;23.77;;;;;;;9.52;52.92;98881.02;1686096;84;21146;-74
2021/03/04 10:37:59;;;;;;;37.70;25.37;;;;;;;9.42;52.92;98878.63;1689088;85;21202;-74
2021/03/04 10:40:26;;;;;;;35.78;24.80;;;;;;;9.36;53.25;98872.17;1663194;86;21213;-74
2021/03/04 10:42:54;;;;;;;35.30;24.43;;;;;;;9.36;53.18;98867.56;1673253;85;21264;-75
2021/03/04 10:45:24;;;;;;;32.53;22.62;;;;;;;9.46;53.11;98859.31;1674279;85;21160;-75
2021/03/04 10:47:52;;;;;;;35.92;24.80;;;;;;;9.56;53.35;98865.77;1672803;86;21199;-74
2021/03/04 10:50:21;;;;;;;37.48;24.75;;;;;;;9.57;52.87;98849.16;1673039;85;21181;-74
2021/03/04 10:52:49;;;;;;;37.00;23.50;;;;;;;9.55;52.96;98843.77;1673726;85;21622;-74
2021/03/04 10:55:18;;;;;;;36.25;23.67;;;;;;;9.51;53.47;98840.81;1692491;85;21331;-74
2021/03/04 10:57:45;;;;;;;35.73;23.83;;;;;;;9.54;53.46;98844.30;1679125;85;21732;-73
2021/03/04 11:00:14;;;;;;;33.98;23.25;;;;;;;9.63;53.12;98848.58;1672751;86;21171;-74
2021/03/04 11:02:42;;;;;;;35.43;23.12;;;;;;;9.62;53.22;98845.59;1672790;86;21211;-75
2021/03/04 11:05:10;;;;;;;34.78;23.40;;;;;;;9.58;53.44;98836.39;1672913;84;21201;-74
2021/03/04 11:07:38;;;;;;;36.83;25.25;;;;;;;9.76;53.80;98839.20;1674913;85;21190;-75
2021/03/04 11:10:09;;;;;;;36.65;24.30;;;;;;;9.81;53.35;98841.06;1677687;85;21335;-74
2021/03/04 11:12:38;;;;;;;35.55;25.17;;;;;;;9.85;53.55;98836.09;1690523;85;22099;-75
2021/03/04 11:15:07;;;;;;;34.70;24.45;;;;;;;9.86;53.19;98834.20;1694332;83;21197;-75
2021/03/04 11:17:35;;;;;;;36.90;24.07;;;;;;;9.79;53.34;98829.11;1662349;86;21657;-74
2021/03/04 11:20:05;;;;;;;30.32;21.82;;;;;;;9.72;53.35;98821.84;1693292;85;21205;-74
2021/03/04 11:22:33;;;;;;;33.18;22.42;;;;;;;9.60;53.85;98823.34;1662046;84;21158;-74
2021/03/04 11:25:00;;;;;;;36.45;23.45;;;;;;;9.55;54.12;98814.69;1692342;84;21186;-73
2021/03/04 11:27:28;;;;;;;32.10;22.22;;;;;;;9.56;54.32;98801.38;1662160;84;21193;-73
2021/03/04 11:29:55;;;;;;;35.92;25.10;;;;;;;9.59;54.41;98804.87;1693271;83;21648;-73
2021/03/04 11:32:25;;;;;;;34.70;23.42;;;;;;;9.61;54.43;98804.56;1706038;83;21161;-74
2021/03/04 11:34:53;;;;;;;34.03;22.55;;;;;;;9.64;54.54;98802.63;1666451;84;21635;-75
2021/03/04 11:37:20;;;;;;;30.72;21.85;;;;;;;9.67;54.24;98800.72;1679537;85;21205;-73
2021/03/04 11:39:48;;;;;;;33.78;22.98;;;;;;;9.65;54.49;98797.46;1711823;83;21185;-75